Hauptseite
METAR-TAF:

METAR-TAF

Flughäfen :

Hof, Deutschland

Breite: 50-19N, Länge: 011-53E, Höhe: 567 m

Beobachtung

Neuester Wetterbericht von vor 1 Stunde und 39 Minuten, um 15:50 UTC
Wind 6 kt aus West/Südwest, variierte zwischen Süd/Südwest und West
Temperatur 9°C
Luftfeuchtigkeit 49%
Luftdruck 1016 hPa
Sichtweite 10 km oder mehr
Leicht bewölkt in der Höhe von 4400 ft
Durchbrochene Bewölkung in der Höhe von 7200 ft

METAR: EDQM 291550Z 24006KT 210V270 9999 FEW044 BKN072 09/M01 Q1016

Zeit: 19:29 (17:29 UTC)

Prognose

Neuester Wetterbericht von vor 3 Stunden und 29 Minuten, um 14:00 UTC
Gültige Prognose vom 29 um 15 UTC bis 29 um 24 UTC
Wind 7 kt aus West/Nordwest
Sichtweite 10 km oder mehr
Aufgelockert bewölkt in der Höhe von 4000 ft
Übergehend zu
vom 29 um 16 UTC bis 29 um 18 UTC
Wind 4 kt aus Nordost

TAF: EDQM 291400Z 2915/2924 29007KT 9999 SCT040 BECMG 2916/2918 04004KT

Wetterbeobachtungen und Prognosen von mehr als 4000 Flughäfen (METAR und TAF Bericht).

Die verfügbaren Stationen werden durch gelbe und rote Markierungen auf der Karte dargestellt.

Führen Sie die Maus auf sie, um den Namen der Station zu sehen.

Darauf klicken, um die Beobachtung von Wetterbeobachtungen und Prognosen zu sehen.

Um die Karte zu ändern : klicken Sie auf den grünen Tasten mit einem schwarzen Kreuz Zum Vergrößern, auf den grünen Button mit einem Gedankenstrich zu verkleinern, oder auf die grünen Pfeile für benachbarte Karten.


METAR-TAF: